createdAt,value
2018-05-02T00:00:25.464Z,66.5
2018-05-02T00:01:26.809Z,66.3
2018-05-02T00:02:28.184Z,66.5
2018-05-02T00:03:29.532Z,65.6
2018-05-02T00:04:30.876Z,65.5
2018-05-02T00:05:32.225Z,65.6
2018-05-02T00:06:33.567Z,65.4
2018-05-02T00:07:34.917Z,64.2
2018-05-02T00:08:36.272Z,64.3
2018-05-02T00:09:37.610Z,64.2
2018-05-02T00:10:38.964Z,63.9
2018-05-02T00:11:40.318Z,64.1
2018-05-02T00:12:41.665Z,64.1
2018-05-02T00:13:43.012Z,64.3
2018-05-02T00:14:44.360Z,64.4
2018-05-02T00:15:45.709Z,64.6
2018-05-02T00:16:47.058Z,64.3
2018-05-02T00:17:48.407Z,64.2
2018-05-02T00:18:49.763Z,64.4
2018-05-02T00:19:51.105Z,64.6
2018-05-02T00:20:52.455Z,64.5
2018-05-02T00:21:53.807Z,64.7
2018-05-02T00:22:55.155Z,64.2
2018-05-02T00:23:56.509Z,64.1
2018-05-02T00:24:57.861Z,63.8
2018-05-02T00:25:59.225Z,63.6
2018-05-02T00:27:00.564Z,63.6
2018-05-02T00:28:01.912Z,63.6
2018-05-02T00:29:03.257Z,63.0
2018-05-02T00:30:04.609Z,63.5
2018-05-02T00:31:06.820Z,62.7
2018-05-02T00:32:08.165Z,62.6
2018-05-02T00:33:09.523Z,63.5
2018-05-02T00:34:10.861Z,62.4
2018-05-02T00:35:12.214Z,62.4
2018-05-02T00:36:13.557Z,62.9
2018-05-02T00:37:14.909Z,63.5
2018-05-02T00:38:16.255Z,63.3
2018-05-02T00:39:17.607Z,63.3
2018-05-02T00:40:18.953Z,63.1
2018-05-02T00:41:20.312Z,62.9
2018-05-02T00:42:21.655Z,63.7
2018-05-02T00:43:23.008Z,63.6
2018-05-02T00:44:24.359Z,63.6
2018-05-02T00:45:25.724Z,63.9
2018-05-02T00:46:27.069Z,64.0
2018-05-02T00:47:28.425Z,64.0
2018-05-02T00:48:29.767Z,63.9
2018-05-02T00:49:31.121Z,63.7
2018-05-02T00:50:32.472Z,64.3
2018-05-02T00:51:33.822Z,64.5
2018-05-02T00:52:35.181Z,64.3
2018-05-02T00:53:36.537Z,64.7
2018-05-02T00:54:37.885Z,64.3
2018-05-02T00:55:39.239Z,64.6
2018-05-02T00:56:40.587Z,64.8
2018-05-02T00:57:41.946Z,65.3
2018-05-02T00:58:43.330Z,65.1
2018-05-02T00:59:44.646Z,64.8
2018-05-02T01:00:46.005Z,64.9
2018-05-02T01:01:47.354Z,65.2
2018-05-02T01:02:48.711Z,64.9
2018-05-02T01:03:50.057Z,65.3
2018-05-02T01:04:51.405Z,65.3
2018-05-02T01:05:52.754Z,65.3
2018-05-02T01:06:54.108Z,65.4
2018-05-02T01:07:55.449Z,65.3
2018-05-02T01:08:56.801Z,65.1
2018-05-02T01:09:58.145Z,65.6
2018-05-02T01:10:59.493Z,65.4
2018-05-02T01:12:00.843Z,65.9
2018-05-02T01:13:02.195Z,66.0
2018-05-02T01:14:03.556Z,66.0
2018-05-02T01:15:04.894Z,66.3
2018-05-02T01:16:06.249Z,66.3
2018-05-02T01:17:07.612Z,66.3
2018-05-02T01:18:08.956Z,66.2
2018-05-02T01:19:10.308Z,66.1
2018-05-02T01:20:11.656Z,65.7
2018-05-02T01:21:13.005Z,65.5
2018-05-02T01:22:14.358Z,64.9
2018-05-02T01:23:15.708Z,63.9
2018-05-02T01:24:17.057Z,63.5
2018-05-02T01:25:18.416Z,62.8
2018-05-02T01:26:19.774Z,62.4
2018-05-02T01:27:21.126Z,61.4
2018-05-02T01:28:22.494Z,61.0
2018-05-02T01:29:23.862Z,60.5
2018-05-02T01:30:25.317Z,59.7
2018-05-02T01:31:26.672Z,59.5
2018-05-02T01:32:28.030Z,59.2
2018-05-02T01:33:29.373Z,58.9
2018-05-02T01:34:30.763Z,58.6
2018-05-02T01:35:32.082Z,58.5
2018-05-02T01:36:33.425Z,58.8
2018-05-02T01:37:34.779Z,57.6
2018-05-02T01:38:36.136Z,57.9
2018-05-02T01:39:37.485Z,58.2
2018-05-02T01:40:38.836Z,57.6
2018-05-02T01:41:40.187Z,57.7
2018-05-02T01:42:41.540Z,57.6
2018-05-02T01:43:42.900Z,57.6
2018-05-02T01:44:44.254Z,57.5
2018-05-02T01:45:45.599Z,57.9
2018-05-02T01:46:46.957Z,57.5
2018-05-02T01:47:48.306Z,57.1
2018-05-02T01:48:49.657Z,57.4
2018-05-02T01:49:51.006Z,57.5
2018-05-02T01:50:52.355Z,57.3
2018-05-02T01:51:53.717Z,57.5
2018-05-02T01:52:55.059Z,57.4
2018-05-02T01:53:56.406Z,57.5
2018-05-02T01:54:57.761Z,57.5
2018-05-02T01:55:59.111Z,57.1
2018-05-02T01:57:00.462Z,57.4
2018-05-02T01:58:01.813Z,57.5
2018-05-02T01:59:03.176Z,57.2
2018-05-02T02:00:04.525Z,57.6
2018-05-02T02:01:05.880Z,58.3
2018-05-02T02:02:07.227Z,58.5
2018-05-02T02:03:08.600Z,59.2
2018-05-02T02:04:09.947Z,59.8
2018-05-02T02:05:11.298Z,60.9
2018-05-02T02:06:12.661Z,61.0
2018-05-02T02:07:14.016Z,61.2
2018-05-02T02:08:15.361Z,61.7
2018-05-02T02:09:16.717Z,62.3
2018-05-02T02:10:18.066Z,62.3
2018-05-02T02:11:19.418Z,62.8
2018-05-02T02:12:20.776Z,62.8
2018-05-02T02:13:22.146Z,63.0
2018-05-02T02:14:23.489Z,63.5
2018-05-02T02:15:24.839Z,63.9
2018-05-02T02:16:26.187Z,64.1
2018-05-02T02:17:27.537Z,64.0
2018-05-02T02:18:28.895Z,64.6
2018-05-02T02:19:30.243Z,64.0
2018-05-02T02:20:31.595Z,65.1
2018-05-02T02:21:32.950Z,64.9
2018-05-02T02:22:34.303Z,65.4
2018-05-02T02:23:35.654Z,65.4
2018-05-02T02:24:37.002Z,65.3
2018-05-02T02:25:38.353Z,65.8
2018-05-02T02:26:39.706Z,65.8
2018-05-02T02:27:41.063Z,66.2
2018-05-02T02:28:42.932Z,66.3
2018-05-02T02:29:44.278Z,66.5
2018-05-02T02:30:45.633Z,66.4
2018-05-02T02:31:46.988Z,66.8
2018-05-02T02:32:48.341Z,66.5
2018-05-02T02:33:49.697Z,67.1
2018-05-02T02:34:51.049Z,67.1
2018-05-02T02:35:52.399Z,67.4
2018-05-02T02:36:53.747Z,67.8
2018-05-02T02:37:55.096Z,67.5
2018-05-02T02:38:56.447Z,67.3
2018-05-02T02:39:57.795Z,67.4
2018-05-02T02:40:59.247Z,67.9
2018-05-02T02:42:00.598Z,67.5
2018-05-02T02:43:01.947Z,66.5
2018-05-02T02:44:03.287Z,65.4
2018-05-02T02:45:04.631Z,64.0
2018-05-02T02:46:05.987Z,63.2
2018-05-02T02:47:07.332Z,62.4
2018-05-02T02:48:08.676Z,62.2
2018-05-02T02:49:10.032Z,61.4
2018-05-02T02:50:11.379Z,61.1
2018-05-02T02:51:12.731Z,60.9
2018-05-02T02:52:14.163Z,60.9
2018-05-02T02:53:15.514Z,61.4
2018-05-02T02:54:16.869Z,61.3
2018-05-02T02:55:18.237Z,61.7
2018-05-02T02:56:19.568Z,62.0
2018-05-02T02:57:20.921Z,63.0
2018-05-02T02:58:22.269Z,62.9
2018-05-02T02:59:23.618Z,63.7
2018-05-02T03:00:24.971Z,63.8
2018-05-02T03:01:26.322Z,64.0
2018-05-02T03:02:27.678Z,64.2
2018-05-02T03:03:29.023Z,64.9
2018-05-02T03:04:30.376Z,65.4
2018-05-02T03:05:31.731Z,65.3
2018-05-02T03:06:33.092Z,65.8
2018-05-02T03:07:34.445Z,65.8
2018-05-02T03:08:35.800Z,66.2
2018-05-02T03:09:37.151Z,66.2
2018-05-02T03:10:38.508Z,66.4
2018-05-02T03:11:39.856Z,66.9
2018-05-02T03:12:41.212Z,66.5
2018-05-02T03:13:42.562Z,67.2
2018-05-02T03:14:43.923Z,67.2
2018-05-02T03:15:45.303Z,67.3
2018-05-02T03:16:46.654Z,67.4
2018-05-02T03:17:48.008Z,67.3
2018-05-02T03:18:49.355Z,67.6
2018-05-02T03:19:50.704Z,67.6
2018-05-02T03:20:52.091Z,68.0
2018-05-02T03:21:53.438Z,68.2
2018-05-02T03:22:54.790Z,68.1
2018-05-02T03:23:56.143Z,68.4
2018-05-02T03:24:57.491Z,69.0
2018-05-02T03:25:58.849Z,68.8
2018-05-02T03:27:00.232Z,69.0
2018-05-02T03:28:01.591Z,69.1
2018-05-02T03:29:02.946Z,68.9
2018-05-02T03:30:04.305Z,69.0
2018-05-02T03:31:05.664Z,69.5
2018-05-02T03:32:07.017Z,69.6
2018-05-02T03:33:08.366Z,69.6
2018-05-02T03:34:09.709Z,69.2
2018-05-02T03:35:11.062Z,69.4
2018-05-02T03:36:12.408Z,69.8
2018-05-02T03:37:13.758Z,69.9
2018-05-02T03:38:15.113Z,70.2
2018-05-02T03:39:16.468Z,69.9
2018-05-02T03:40:17.819Z,70.1
2018-05-02T03:41:19.164Z,70.7
2018-05-02T03:42:20.518Z,70.4
2018-05-02T03:43:21.868Z,70.6
2018-05-02T03:44:23.214Z,70.4
2018-05-02T03:45:24.571Z,70.7
2018-05-02T03:46:25.921Z,70.6
2018-05-02T03:47:27.273Z,70.9
2018-05-02T03:48:28.623Z,70.8
2018-05-02T03:49:29.974Z,71.0
2018-05-02T03:50:31.340Z,70.9
2018-05-02T03:51:32.702Z,71.1
2018-05-02T03:52:34.051Z,71.2
2018-05-02T03:53:36.334Z,71.5
2018-05-02T03:54:37.681Z,71.2
2018-05-02T03:55:39.028Z,71.3
2018-05-02T03:56:40.380Z,71.5
2018-05-02T03:57:41.737Z,71.2
2018-05-02T03:58:43.084Z,71.2
2018-05-02T03:59:44.493Z,71.0
2018-05-02T04:00:45.801Z,71.0
2018-05-02T04:01:47.152Z,71.5
2018-05-02T04:02:48.510Z,71.4
2018-05-02T04:03:49.860Z,71.9
2018-05-02T04:04:51.215Z,72.0
2018-05-02T04:05:52.571Z,71.8
2018-05-02T04:06:53.935Z,71.5
2018-05-02T04:07:55.284Z,71.7
2018-05-02T04:08:56.640Z,71.8
2018-05-02T04:09:57.996Z,71.8
2018-05-02T04:10:59.352Z,71.8
2018-05-02T04:12:00.705Z,71.7
2018-05-02T04:13:02.679Z,72.0
2018-05-02T04:14:04.030Z,71.6
2018-05-02T04:15:05.385Z,71.9
2018-05-02T04:16:06.736Z,72.0
2018-05-02T04:17:08.096Z,72.2
2018-05-02T04:18:09.442Z,72.1
2018-05-02T04:19:10.795Z,72.3
2018-05-02T04:20:12.153Z,72.1
2018-05-02T04:21:13.504Z,72.1
2018-05-02T04:22:14.898Z,72.1
2018-05-02T04:23:16.246Z,72.1
2018-05-02T04:24:17.624Z,72.2
2018-05-02T04:25:18.997Z,72.2
2018-05-02T04:26:20.342Z,72.1
2018-05-02T04:27:21.697Z,72.2
2018-05-02T04:28:23.050Z,72.1
2018-05-02T04:29:24.406Z,72.1
2018-05-02T04:30:25.764Z,72.3
2018-05-02T04:31:27.119Z,72.1
2018-05-02T04:32:28.467Z,71.7
2018-05-02T04:33:29.838Z,71.7
2018-05-02T04:34:31.188Z,71.8
2018-05-02T04:35:32.542Z,71.8
2018-05-02T04:36:33.905Z,71.9
2018-05-02T04:37:35.282Z,71.8
2018-05-02T04:38:36.642Z,71.6
2018-05-02T04:39:37.992Z,71.8
2018-05-02T04:40:39.345Z,71.4
2018-05-02T04:41:40.694Z,71.5
2018-05-02T04:42:42.052Z,71.3
2018-05-02T04:43:43.430Z,71.3
2018-05-02T04:44:44.791Z,71.1
2018-05-02T04:45:46.150Z,71.1
2018-05-02T04:46:47.509Z,71.0
2018-05-02T04:47:48.918Z,71.0
2018-05-02T04:48:50.282Z,71.2
2018-05-02T04:49:51.634Z,71.2
2018-05-02T04:50:52.992Z,71.4
2018-05-02T04:51:54.343Z,71.3
2018-05-02T04:52:55.699Z,71.5
2018-05-02T04:53:57.054Z,71.3
2018-05-02T04:54:58.403Z,71.2
2018-05-02T04:55:59.763Z,71.5
2018-05-02T04:57:01.119Z,71.6
2018-05-02T04:58:02.473Z,71.2
2018-05-02T04:59:03.832Z,71.7
2018-05-02T05:00:05.184Z,71.4
2018-05-02T05:01:06.565Z,71.6
2018-05-02T05:02:07.923Z,71.3
2018-05-02T05:03:09.281Z,71.4
2018-05-02T05:04:10.640Z,71.3
2018-05-02T05:05:11.996Z,71.0
2018-05-02T05:06:13.344Z,71.2
2018-05-02T05:07:14.704Z,71.3
2018-05-02T05:08:16.059Z,71.8
2018-05-02T05:09:17.426Z,71.4
2018-05-02T05:10:18.784Z,71.6
2018-05-02T05:11:20.154Z,71.8
2018-05-02T05:12:21.596Z,71.9
2018-05-02T05:13:22.876Z,71.8
2018-05-02T05:14:24.228Z,71.8
2018-05-02T05:15:25.579Z,71.6
2018-05-02T05:16:26.942Z,72.1
2018-05-02T05:17:28.304Z,71.8
2018-05-02T05:18:29.664Z,71.7
2018-05-02T05:19:31.036Z,71.8
2018-05-02T05:20:32.393Z,71.7
2018-05-02T05:21:33.745Z,71.6
2018-05-02T05:22:35.100Z,71.5
2018-05-02T05:23:36.468Z,71.7
2018-05-02T05:24:37.828Z,71.6
2018-05-02T05:25:39.187Z,71.8
2018-05-02T05:26:40.544Z,71.8
2018-05-02T05:27:41.893Z,71.8
2018-05-02T05:28:43.255Z,71.8
2018-05-02T05:29:44.607Z,71.6
2018-05-02T05:30:45.967Z,71.8
2018-05-02T05:31:47.328Z,71.8
2018-05-02T05:32:48.697Z,71.9
2018-05-02T05:33:50.055Z,71.8
2018-05-02T05:34:51.413Z,71.8
2018-05-02T05:35:52.779Z,71.8
2018-05-02T05:36:54.135Z,71.8
2018-05-02T05:37:55.490Z,71.8
2018-05-02T05:38:56.853Z,71.7
2018-05-02T05:39:58.214Z,71.5
2018-05-02T05:40:59.576Z,71.6
2018-05-02T05:42:00.935Z,71.8
2018-05-02T05:43:02.298Z,71.8
2018-05-02T05:44:03.654Z,71.8
2018-05-02T05:45:05.013Z,71.8
2018-05-02T05:46:06.366Z,71.3
2018-05-02T05:47:07.728Z,71.3
2018-05-02T05:48:09.096Z,71.3
2018-05-02T05:49:10.453Z,71.4
2018-05-02T05:50:11.813Z,71.6
2018-05-02T05:51:13.169Z,71.5
2018-05-02T05:52:14.549Z,71.2
2018-05-02T05:53:15.910Z,70.8
2018-05-02T05:54:17.369Z,71.0
2018-05-02T05:55:18.636Z,71.1
2018-05-02T05:56:19.994Z,70.7
2018-05-02T05:57:21.363Z,70.5
2018-05-02T05:58:22.717Z,70.5
2018-05-02T05:59:24.071Z,70.1
2018-05-02T06:00:25.436Z,70.0
2018-05-02T06:01:26.800Z,70.1
2018-05-02T06:02:28.188Z,70.3
2018-05-02T06:03:29.547Z,70.0
2018-05-02T06:04:30.905Z,69.8
2018-05-02T06:05:32.261Z,69.8
2018-05-02T06:06:33.627Z,69.8
2018-05-02T06:07:35.004Z,69.6
2018-05-02T06:08:36.388Z,69.8
2018-05-02T06:09:37.800Z,69.5
2018-05-02T06:10:39.163Z,69.7
2018-05-02T06:11:40.526Z,69.3
2018-05-02T06:12:41.901Z,69.2
2018-05-02T06:13:43.251Z,68.9
2018-05-02T06:14:44.618Z,68.8
2018-05-02T06:15:45.984Z,69.2
2018-05-02T06:16:47.387Z,69.0
2018-05-02T06:17:48.737Z,68.8
2018-05-02T06:18:50.169Z,69.1
2018-05-02T06:19:51.474Z,68.3
2018-05-02T06:20:52.872Z,68.4
2018-05-02T06:21:54.227Z,68.2
2018-05-02T06:22:55.599Z,68.3
2018-05-02T06:23:56.961Z,68.3
2018-05-02T06:24:58.329Z,68.4
2018-05-02T06:25:59.692Z,68.4
2018-05-02T06:27:01.051Z,68.0
2018-05-02T06:28:02.409Z,68.3
2018-05-02T06:29:03.779Z,68.1
2018-05-02T06:30:05.138Z,68.3
2018-05-02T06:31:06.508Z,68.4
2018-05-02T06:32:07.863Z,68.2
2018-05-02T06:33:09.341Z,68.0
2018-05-02T06:34:10.927Z,67.9
2018-05-02T06:35:12.286Z,67.3
2018-05-02T06:36:13.664Z,67.9
2018-05-02T06:37:15.035Z,67.5
2018-05-02T06:38:16.393Z,67.7
2018-05-02T06:39:17.771Z,67.2
2018-05-02T06:40:19.136Z,67.0
2018-05-02T06:41:20.494Z,67.6
2018-05-02T06:42:21.857Z,67.2
2018-05-02T06:43:23.231Z,67.2
2018-05-02T06:44:24.590Z,67.4
2018-05-02T06:45:25.964Z,67.5
2018-05-02T06:46:27.330Z,67.4
2018-05-02T06:47:28.695Z,67.3
2018-05-02T06:48:30.067Z,66.8
2018-05-02T06:49:31.500Z,66.8
2018-05-02T06:50:32.900Z,66.7
2018-05-02T06:51:34.276Z,67.1
2018-05-02T06:52:36.155Z,67.0
2018-05-02T06:53:37.511Z,66.5
2018-05-02T06:54:38.949Z,66.5
2018-05-02T06:55:40.205Z,66.5
2018-05-02T06:56:41.588Z,66.7
2018-05-02T06:57:42.953Z,67.0
2018-05-02T06:58:44.321Z,66.6
2018-05-02T06:59:45.693Z,66.8
2018-05-02T07:00:47.112Z,66.5
2018-05-02T07:01:48.426Z,66.4
2018-05-02T07:02:49.789Z,66.4
2018-05-02T07:03:51.158Z,66.4
2018-05-02T07:04:52.520Z,66.5
2018-05-02T07:05:53.847Z,66.5
2018-05-02T07:06:55.214Z,66.2
2018-05-02T07:07:56.596Z,66.2
2018-05-02T07:08:57.955Z,65.8
2018-05-02T07:09:59.329Z,65.4
2018-05-02T07:11:00.683Z,65.9
2018-05-02T07:12:02.062Z,65.4
2018-05-02T07:13:03.453Z,65.5
2018-05-02T07:14:04.827Z,65.5
2018-05-02T07:15:06.195Z,65.7
2018-05-02T07:16:07.559Z,65.5
2018-05-02T07:17:08.993Z,65.5
2018-05-02T07:18:10.438Z,65.2
2018-05-02T07:19:11.881Z,65.4
2018-05-02T07:20:13.150Z,65.3
2018-05-02T07:21:14.524Z,64.9
2018-05-02T07:22:15.882Z,64.8
2018-05-02T07:23:17.256Z,64.4
2018-05-02T07:24:18.649Z,65.0
2018-05-02T07:25:20.094Z,64.9
2018-05-02T07:26:21.461Z,64.2
2018-05-02T07:27:22.841Z,64.1
2018-05-02T07:28:24.207Z,64.2
2018-05-02T07:29:25.612Z,64.0
2018-05-02T07:30:26.959Z,63.8
2018-05-02T07:31:28.446Z,63.9
2018-05-02T07:32:29.869Z,64.0
2018-05-02T07:33:31.193Z,64.0
2018-05-02T07:34:32.605Z,63.7
2018-05-02T07:35:33.974Z,63.8
2018-05-02T07:36:35.341Z,63.4
2018-05-02T07:37:36.731Z,63.0
2018-05-02T07:38:38.094Z,63.6
2018-05-02T07:39:39.525Z,63.0
2018-05-02T07:40:40.882Z,62.6
2018-05-02T07:41:42.270Z,62.8
2018-05-02T07:42:43.665Z,62.7
2018-05-02T07:43:45.049Z,62.7
2018-05-02T07:44:46.422Z,62.7
2018-05-02T07:45:47.819Z,62.6
2018-05-02T07:46:49.189Z,62.5
2018-05-02T07:47:50.572Z,62.7
2018-05-02T07:48:51.936Z,62.8
2018-05-02T07:49:53.306Z,62.9
2018-05-02T07:50:54.680Z,62.4
2018-05-02T07:51:56.050Z,61.7
2018-05-02T07:52:57.419Z,62.1
2018-05-02T07:53:58.790Z,61.5
2018-05-02T07:55:00.164Z,61.6
2018-05-02T07:56:01.550Z,61.5
2018-05-02T07:57:02.927Z,61.4
2018-05-02T07:58:04.307Z,61.7
2018-05-02T07:59:05.663Z,61.4
2018-05-02T08:00:07.069Z,61.3
2018-05-02T08:01:08.445Z,61.2
2018-05-02T08:02:09.823Z,61.2
2018-05-02T08:03:11.214Z,61.2
2018-05-02T08:04:12.637Z,61.3
2018-05-02T08:05:14.012Z,61.3
2018-05-02T08:06:15.416Z,60.9
2018-05-02T08:07:18.612Z,60.8
2018-05-02T08:08:19.976Z,61.6
2018-05-02T08:09:21.349Z,61.3
2018-05-02T08:10:22.721Z,61.1
2018-05-02T08:11:24.104Z,61.5
2018-05-02T08:12:25.462Z,61.1
2018-05-02T08:13:26.855Z,61.2
2018-05-02T08:14:28.226Z,61.4
2018-05-02T08:15:29.596Z,61.0
2018-05-02T08:16:30.971Z,61.0
2018-05-02T08:17:32.342Z,61.0
2018-05-02T08:18:33.885Z,60.6
2018-05-02T08:19:35.281Z,60.7
2018-05-02T08:20:36.644Z,60.4
2018-05-02T08:21:38.009Z,60.2
2018-05-02T08:22:39.392Z,60.4
2018-05-02T08:23:40.763Z,60.3
2018-05-02T08:24:42.153Z,60.6
2018-05-02T08:25:43.518Z,60.1
2018-05-02T08:26:44.902Z,60.2
2018-05-02T08:27:46.302Z,59.9
2018-05-02T08:28:47.679Z,60.4
2018-05-02T08:29:49.056Z,60.7
2018-05-02T08:30:50.428Z,60.6
2018-05-02T08:31:51.814Z,59.9
2018-05-02T08:32:53.333Z,59.7
2018-05-02T08:33:54.553Z,59.7
2018-05-02T08:34:55.934Z,59.9
2018-05-02T08:35:57.307Z,59.8
2018-05-02T08:36:58.746Z,59.8
2018-05-02T08:38:00.078Z,59.5
2018-05-02T08:39:01.462Z,59.9
2018-05-02T08:40:02.840Z,59.6
2018-05-02T08:41:04.214Z,59.7
2018-05-02T08:42:05.595Z,59.4
2018-05-02T08:43:06.962Z,59.5
2018-05-02T08:44:08.348Z,59.8
2018-05-02T08:45:09.726Z,59.8
2018-05-02T08:46:11.123Z,59.5
2018-05-02T08:47:12.498Z,59.5
2018-05-02T08:48:13.873Z,59.4
2018-05-02T08:49:15.243Z,59.7
2018-05-02T08:50:16.612Z,59.0
2018-05-02T08:51:17.980Z,58.7
2018-05-02T08:52:19.360Z,58.7
2018-05-02T08:53:20.733Z,58.7
2018-05-02T08:54:22.110Z,58.8
2018-05-02T08:55:23.477Z,58.9
2018-05-02T08:56:24.846Z,58.7
2018-05-02T08:57:26.270Z,58.5
2018-05-02T08:58:27.593Z,58.7
2018-05-02T08:59:28.967Z,58.6
2018-05-02T09:00:30.336Z,58.9
2018-05-02T09:01:31.738Z,59.0
2018-05-02T09:02:33.114Z,58.4
2018-05-02T09:03:34.483Z,58.4
2018-05-02T09:04:35.859Z,58.2
2018-05-02T09:05:37.228Z,58.3
2018-05-02T09:06:38.603Z,58.4
2018-05-02T09:07:40.001Z,58.4
2018-05-02T09:08:41.387Z,58.4
2018-05-02T09:09:42.767Z,58.4
2018-05-02T09:10:44.141Z,58.4
2018-05-02T09:11:45.516Z,58.5
2018-05-02T09:12:46.895Z,58.2
2018-05-02T09:13:48.337Z,58.4
2018-05-02T09:14:49.707Z,58.4
2018-05-02T09:15:51.084Z,58.2
2018-05-02T09:16:52.450Z,58.1
2018-05-02T09:17:53.819Z,57.5
2018-05-02T09:18:55.208Z,57.7
2018-05-02T09:19:56.578Z,57.7
2018-05-02T09:20:57.952Z,57.3
2018-05-02T09:21:59.335Z,57.8
2018-05-02T09:23:00.716Z,57.4
2018-05-02T09:24:02.085Z,57.7
2018-05-02T09:25:03.459Z,57.7
2018-05-02T09:26:04.839Z,57.2
2018-05-02T09:27:06.209Z,57.4
2018-05-02T09:28:07.583Z,57.4
2018-05-02T09:29:08.996Z,57.5
2018-05-02T09:30:10.367Z,57.0
2018-05-02T09:31:11.728Z,57.1
2018-05-02T09:32:13.120Z,57.0
2018-05-02T09:33:14.494Z,57.0
2018-05-02T09:34:15.898Z,56.6
2018-05-02T09:35:17.264Z,56.5
2018-05-02T09:36:18.647Z,56.7
2018-05-02T09:37:20.025Z,56.7
2018-05-02T09:38:21.386Z,56.3
2018-05-02T09:39:23.267Z,56.2
2018-05-02T09:40:24.641Z,55.9
2018-05-02T09:41:26.010Z,56.3
2018-05-02T09:42:27.383Z,55.6
2018-05-02T09:43:28.768Z,55.2
2018-05-02T09:44:30.139Z,55.3
2018-05-02T09:45:31.505Z,55.5
2018-05-02T09:46:32.880Z,55.2
2018-05-02T09:47:34.257Z,55.5
2018-05-02T09:48:35.632Z,55.5
2018-05-02T09:49:37.008Z,54.8
2018-05-02T09:50:38.380Z,54.7
2018-05-02T09:51:39.779Z,54.9
2018-05-02T09:52:41.170Z,55.1
2018-05-02T09:53:42.556Z,54.6
2018-05-02T09:54:43.923Z,54.5
2018-05-02T09:55:45.445Z,54.5
2018-05-02T09:56:47.092Z,54.4
2018-05-02T09:57:48.545Z,54.6
2018-05-02T09:58:49.958Z,54.7
2018-05-02T09:59:51.414Z,54.5
2018-05-02T10:00:52.873Z,54.0
2018-05-02T10:01:54.287Z,54.1
2018-05-02T10:02:55.714Z,54.1
2018-05-02T10:03:57.171Z,53.5
2018-05-02T10:04:58.581Z,53.2
2018-05-02T10:06:00.070Z,53.7
2018-05-02T10:07:01.482Z,53.5
2018-05-02T10:08:02.948Z,53.5
2018-05-02T10:09:04.339Z,53.7
2018-05-02T10:10:06.715Z,53.3
2018-05-02T10:11:08.083Z,53.4
2018-05-02T10:12:09.464Z,53.1
2018-05-02T10:13:10.858Z,53.2
2018-05-02T10:14:12.252Z,52.5
2018-05-02T10:15:13.632Z,52.9
2018-05-02T10:16:15.032Z,52.4
2018-05-02T10:17:16.410Z,52.2
2018-05-02T10:18:17.797Z,52.2
2018-05-02T10:19:19.180Z,51.8
2018-05-02T10:20:20.573Z,52.0
2018-05-02T10:21:21.959Z,52.2
2018-05-02T10:22:23.395Z,52.3
2018-05-02T10:23:24.817Z,52.3
2018-05-02T10:24:26.204Z,51.6
2018-05-02T10:25:27.646Z,52.1
2018-05-02T10:26:29.060Z,51.8
2018-05-02T10:27:30.499Z,51.8
2018-05-02T10:28:31.934Z,52.2
2018-05-02T10:29:33.396Z,52.1
2018-05-02T10:30:34.805Z,52.1
2018-05-02T10:31:36.378Z,51.8
2018-05-02T10:32:37.805Z,51.9
2018-05-02T10:33:39.247Z,51.3
2018-05-02T10:34:40.673Z,51.5
2018-05-02T10:35:42.182Z,51.4
2018-05-02T10:36:43.566Z,51.2
2018-05-02T10:37:45.012Z,50.8
2018-05-02T10:38:46.415Z,50.9
2018-05-02T10:39:47.794Z,50.6
2018-05-02T10:40:49.181Z,50.8
2018-05-02T10:41:50.564Z,51.1
2018-05-02T10:42:52.026Z,50.1
2018-05-02T10:43:53.523Z,50.1
2018-05-02T10:44:54.987Z,49.9
2018-05-02T10:45:56.438Z,50.0
2018-05-02T10:46:57.840Z,49.8
2018-05-02T10:47:59.235Z,49.7
2018-05-02T10:49:00.663Z,49.4
2018-05-02T10:50:02.172Z,49.5
2018-05-02T10:51:03.641Z,49.8
2018-05-02T10:52:05.086Z,49.0
2018-05-02T10:53:06.506Z,49.3
2018-05-02T10:54:07.929Z,49.5
2018-05-02T10:55:09.354Z,49.3
2018-05-02T10:56:10.778Z,49.4
2018-05-02T10:57:12.254Z,49.4
2018-05-02T10:58:13.697Z,49.2
2018-05-02T10:59:15.080Z,49.5
2018-05-02T11:00:16.455Z,49.4
2018-05-02T11:01:17.840Z,49.2
2018-05-02T11:02:19.234Z,48.7
2018-05-02T11:03:20.670Z,48.7
2018-05-02T11:04:22.092Z,48.6
2018-05-02T11:05:23.527Z,48.6
2018-05-02T11:06:24.932Z,48.1
2018-05-02T11:07:26.322Z,48.1
2018-05-02T11:08:27.725Z,47.9
2018-05-02T11:09:29.182Z,47.9
2018-05-02T11:10:30.621Z,48.1
2018-05-02T11:11:32.110Z,48.0
2018-05-02T11:12:33.518Z,48.2
2018-05-02T11:13:34.899Z,47.6
2018-05-02T11:14:36.307Z,47.7
2018-05-02T11:15:37.786Z,48.0
2018-05-02T11:16:39.267Z,47.8
2018-05-02T11:17:40.715Z,48.1
2018-05-02T11:18:42.162Z,47.3
2018-05-02T11:19:43.581Z,47.0
2018-05-02T11:20:45.088Z,47.1
2018-05-02T11:21:46.512Z,46.8
2018-05-02T11:22:48.033Z,47.2
2018-05-02T11:23:49.447Z,46.9
2018-05-02T11:24:50.867Z,46.5
2018-05-02T11:25:52.321Z,46.4
2018-05-02T11:26:53.749Z,46.1
2018-05-02T11:27:55.204Z,46.2
2018-05-02T11:28:56.608Z,46.2
2018-05-02T11:29:57.984Z,46.3
2018-05-02T11:30:59.448Z,46.3
2018-05-02T11:32:00.854Z,46.1
2018-05-02T11:33:02.280Z,46.5
2018-05-02T11:34:03.684Z,46.1
2018-05-02T11:35:05.160Z,45.4
2018-05-02T11:36:06.650Z,45.4
2018-05-02T11:37:08.093Z,45.4
2018-05-02T11:38:09.506Z,45.5
2018-05-02T11:39:10.955Z,45.4
2018-05-02T11:40:12.411Z,45.6
2018-05-02T11:41:13.846Z,45.4
2018-05-02T11:42:15.360Z,45.4
2018-05-02T11:43:16.819Z,45.2
2018-05-02T11:44:18.215Z,45.3
2018-05-02T11:45:19.661Z,45.1
2018-05-02T11:46:21.909Z,45.2
2018-05-02T11:47:23.215Z,45.2
2018-05-02T11:48:24.600Z,45.2
2018-05-02T11:49:25.988Z,45.2
2018-05-02T11:50:27.363Z,44.9
2018-05-02T11:51:28.853Z,45.2
2018-05-02T11:52:30.366Z,45.4
2018-05-02T11:53:31.812Z,44.9
2018-05-02T11:54:34.239Z,45.2
2018-05-02T11:55:36.213Z,45.2
2018-05-02T11:56:38.442Z,44.8
2018-05-02T11:57:40.277Z,45.2
2018-05-02T11:58:41.636Z,45.3
2018-05-02T11:59:43.053Z,45.3
2018-05-02T12:00:44.462Z,45.0
2018-05-02T12:01:46.413Z,45.3
2018-05-02T12:02:47.844Z,45.4
2018-05-02T12:03:49.763Z,45.3
2018-05-02T12:04:51.287Z,45.1
2018-05-02T12:05:52.724Z,45.3
2018-05-02T12:06:54.250Z,45.2
2018-05-02T12:07:55.727Z,45.1
2018-05-02T12:08:57.219Z,45.0
2018-05-02T12:09:59.076Z,45.0
2018-05-02T12:11:00.736Z,45.2
2018-05-02T12:12:02.272Z,45.2
2018-05-02T12:13:03.902Z,45.7
2018-05-02T12:14:05.994Z,45.7
2018-05-02T12:15:07.432Z,45.3
2018-05-02T12:16:09.055Z,45.2
2018-05-02T12:17:10.564Z,45.1
2018-05-02T12:18:12.418Z,45.2
2018-05-02T12:19:13.972Z,45.1
2018-05-02T12:20:15.668Z,44.9
2018-05-02T12:21:17.560Z,45.1
2018-05-02T12:22:19.177Z,44.9
2018-05-02T12:23:20.639Z,45.0
2018-05-02T12:24:22.081Z,45.3
2018-05-02T12:25:23.493Z,45.0
2018-05-02T12:26:24.932Z,45.0
2018-05-02T12:27:26.383Z,45.1
2018-05-02T12:28:28.016Z,44.9
2018-05-02T12:29:29.581Z,44.8
2018-05-02T12:30:31.024Z,44.7
2018-05-02T12:31:32.945Z,45.1
2018-05-02T12:32:34.512Z,44.7
2018-05-02T12:33:37.026Z,44.8
2018-05-02T12:34:38.662Z,44.3
2018-05-02T12:35:40.171Z,44.6
2018-05-02T12:36:41.609Z,44.4
2018-05-02T12:37:43.109Z,44.5
2018-05-02T12:38:44.695Z,44.6
2018-05-02T12:39:46.162Z,44.7
2018-05-02T12:40:47.683Z,44.5
2018-05-02T12:41:49.381Z,44.5
2018-05-02T12:42:51.159Z,44.5
2018-05-02T12:43:52.595Z,44.1
2018-05-02T14:03:33.133Z,41.8
2018-05-02T14:04:34.512Z,41.6
2018-05-02T14:05:35.880Z,41.8
2018-05-02T14:06:37.271Z,41.4
2018-05-02T14:07:38.641Z,41.4
2018-05-02T14:08:40.027Z,41.5
2018-05-02T14:09:41.424Z,41.0
2018-05-02T14:10:42.814Z,41.7
2018-05-02T14:11:44.185Z,41.4
2018-05-02T14:12:45.576Z,41.4
2018-05-02T14:13:46.944Z,41.3
2018-05-02T14:14:48.317Z,41.0
2018-05-02T14:15:49.701Z,41.3
2018-05-02T14:16:51.100Z,41.4
2018-05-02T14:17:52.474Z,41.1
2018-05-02T14:18:53.853Z,41.1
2018-05-02T14:19:55.233Z,41.1
2018-05-02T14:20:56.609Z,41.2
2018-05-02T14:21:57.973Z,41.3
2018-05-02T14:22:59.352Z,41.1
2018-05-02T14:24:00.868Z,41.7
2018-05-02T14:25:02.245Z,41.5
2018-05-02T14:26:03.631Z,41.3
2018-05-02T14:27:05.003Z,41.7
2018-05-02T14:28:06.387Z,41.2
2018-05-02T14:29:07.753Z,41.0
2018-05-02T14:30:09.138Z,41.2
2018-05-02T14:31:10.613Z,41.3
2018-05-02T14:32:12.005Z,41.4
2018-05-02T14:33:13.394Z,41.4
2018-05-02T14:34:14.873Z,41.4
2018-05-02T14:35:16.281Z,41.2
2018-05-02T14:36:17.718Z,41.6
2018-05-02T14:37:19.119Z,41.2
2018-05-02T14:38:20.584Z,41.2
2018-05-02T14:39:22.438Z,41.2
2018-05-02T14:40:24.145Z,41.2
2018-05-02T14:41:26.387Z,40.7
2018-05-02T14:42:27.966Z,40.4
2018-05-02T14:43:29.413Z,40.5
2018-05-02T14:44:30.873Z,40.6
2018-05-02T14:45:32.301Z,40.5
2018-05-02T14:46:33.700Z,40.6
2018-05-02T14:47:35.781Z,40.3
2018-05-02T14:48:37.249Z,40.4
2018-05-02T14:49:38.702Z,40.4
2018-05-02T14:50:40.130Z,40.5
2018-05-02T14:51:41.550Z,40.9
2018-05-02T14:52:42.967Z,40.5
2018-05-02T14:53:44.478Z,40.6
2018-05-02T14:54:45.932Z,40.5
2018-05-02T14:55:47.339Z,40.4